Ana Sayfa
METAR-TAF:

METAR-TAF

Havaalanları :

Istanbul Sabiha Gökçen, Türkiye

Sabiha Gökçen Havalimanı

Enlem: 40-53-55N, Boylam: 029-18-33E, yükseklik: 95 m

Güncel hava durumu gözlemi

Rapor saat 13:20 UTC de 41 dakika önce yapıldı.
Rüzgar güneydan 4 kt, güney/güneydoğu ve batı/güneybatı arasında değişken
Sıcaklık 6°C
Nem 52%
Basınç 1035 hPa
Görüş mesafesi 10 km veya daha fazla
1500 m altında bulut yok ve kümülonimbus yok

METAR: LTFJ 081320Z 19004KT 150V250 CAVOK 06/M03 Q1035 NOSIG RMK RWY24 22003KT 170V260

Saat: 16:01 (14:01 UTC)

Tahmin

Rapor saat 10:40 UTC de 3 saat ve 21 dakika önce yapıldı.
Ayın 08'si saat 12 UTC'den ayın 09'si saat 12 UTC'ye kadar geçerli Tahmin
Rüzgar değişken yönden 2 kt
Görüş mesafesi 10 km veya daha fazla
1500 m altında bulut yok ve kümülonimbus yok
Dönüşüyor
ayın 08'si saat 16 UTC'den ayın 08'si saat 20 UTC'ye kadar
Rüzgar batı/güneybatıdan 12 kt

TAF: LTFJ 081040Z 0812/0912 VRB02KT CAVOK BECMG 0816/0820 24012KT

4.000'den fazla havaalanı için hava durumu gözlemleri ve tahminleri (METAR ve TAF raporları).

Kullanılabilir istasyonlar harita üzerinde sarı ve kırmızı noktalarla gösterilir.

İstasyonun adını görmek için fareyi noktanın üzerinde gezdirin.

Sonrasında hava gözlem ve tahminlerini görmek için tıklayın.

Haritayı değiştirmek için: yaklaştırmak için siyah artı işaretli yeşil düğmeye ve uzaklaştırmak için de eksi işaretli düğmeye hızla tıklayın; bitişik haritalar için yeşil okları kullanın.


METAR-TAF: